Time;durP1;ratioP1;P1;durP2;ratioP2;P2;SDS_P1;SDS_P2;PMS_P1;PMS_P2;Temp;Humidity;BMP_temperature;BMP_pressure;BME280_temperature;BME280_humidity;BME280_pressure;Samples;Min_cycle;Max_cycle;Signal;HPM_P1;HPM_P2
2021/01/07 00:03:12;;;;;;;8.37;7.53;;;4.70;46.80;;;;;;10458336;28;20602;-73
2021/01/07 00:08:14;;;;;;;10.33;8.57;;;4.70;46.70;;;;;;10457473;28;20647;-73
2021/01/07 00:13:17;;;;;;;8.33;7.53;;;4.70;46.80;;;;;;10456251;28;20244;-72
2021/01/07 00:18:20;;;;;;;8.70;7.80;;;4.70;46.80;;;;;;10452776;28;20311;-73
2021/01/07 00:23:22;;;;;;;8.80;7.90;;;4.80;46.70;;;;;;10456459;28;20225;-73
2021/01/07 00:28:25;;;;;;;8.93;8.13;;;4.80;46.60;;;;;;10462151;28;20228;-73
2021/01/07 00:33:27;;;;;;;9.27;8.37;;;4.80;46.80;;;;;;10454170;28;20229;-73
2021/01/07 00:38:29;;;;;;;8.77;7.87;;;4.80;46.70;;;;;;10467089;28;20238;-73
2021/01/07 00:43:32;;;;;;;8.77;7.97;;;4.80;46.70;;;;;;10450365;28;20290;-73
2021/01/07 00:48:35;;;;;;;8.93;8.03;;;4.80;46.70;;;;;;10457318;28;20225;-73
2021/01/07 00:53:37;;;;;;;10.07;8.63;;;4.70;46.60;;;;;;10449963;28;20228;-73
2021/01/07 00:58:40;;;;;;;9.57;8.60;;;4.70;46.70;;;;;;10454878;28;20236;-73
2021/01/07 01:03:42;;;;;;;9.23;8.30;;;4.70;46.80;;;;;;10455273;28;20220;-72
2021/01/07 01:08:44;;;;;;;9.53;8.53;;;4.70;46.80;;;;;;10455458;28;20235;-73
2021/01/07 01:13:47;;;;;;;9.00;8.13;;;4.60;46.90;;;;;;10453125;28;20324;-73
2021/01/07 01:18:49;;;;;;;11.30;10.10;;;4.60;47.00;;;;;;10455851;28;20646;-72
2021/01/07 01:23:52;;;;;;;9.67;8.77;;;4.70;47.00;;;;;;10459165;28;20229;-73
2021/01/07 01:28:55;;;;;;;9.33;8.30;;;4.70;47.70;;;;;;10450503;28;20233;-73
2021/01/07 01:33:57;;;;;;;9.53;8.63;;;4.70;47.10;;;;;;10469620;28;20233;-73
2021/01/07 01:38:59;;;;;;;8.73;7.80;;;4.70;47.10;;;;;;10465454;28;20307;-72
2021/01/07 01:44:02;;;;;;;9.23;8.23;;;4.70;46.90;;;;;;10461032;28;20321;-73
2021/01/07 01:49:06;;;;;;;9.00;8.10;;;4.80;46.90;;;;;;10470179;28;20680;-73
2021/01/07 01:54:08;;;;;;;9.20;8.40;;;4.80;46.80;;;;;;10466230;28;20227;-73
2021/01/07 01:59:12;;;;;;;9.40;8.27;;;4.80;46.80;;;;;;10470742;28;20234;-73
2021/01/07 02:04:14;;;;;;;8.93;8.03;;;4.80;46.90;;;;;;10466350;28;20696;-73
2021/01/07 02:09:17;;;;;;;9.20;8.30;;;4.80;46.70;;;;;;10468403;28;20227;-73
2021/01/07 02:14:20;;;;;;;9.27;8.37;;;4.80;46.80;;;;;;10477705;28;20232;-73
2021/01/07 02:19:22;;;;;;;9.17;8.27;;;4.80;46.80;;;;;;10474592;28;20236;-72
2021/01/07 02:24:25;;;;;;;9.57;8.57;;;4.80;46.90;;;;;;10482592;28;20304;-73
2021/01/07 02:29:27;;;;;;;9.73;8.73;;;4.70;46.80;;;;;;10475807;28;20221;-73
2021/01/07 02:34:29;;;;;;;9.97;9.07;;;4.70;46.70;;;;;;10482072;28;20240;-73
2021/01/07 02:39:32;;;;;;;10.13;9.13;;;4.70;46.80;;;;;;10474626;28;20225;-73
2021/01/07 02:44:35;;;;;;;9.77;8.87;;;4.70;46.90;;;;;;10478323;28;20227;-73
2021/01/07 02:49:40;;;;;;;8.53;7.73;;;4.60;46.80;;;;;;10481386;28;20270;-73
2021/01/07 02:54:43;;;;;;;9.57;8.67;;;4.70;46.80;;;;;;10482138;28;20593;-73
2021/01/07 02:59:45;;;;;;;9.57;8.67;;;4.60;46.80;;;;;;10475339;28;20231;-73
2021/01/07 03:04:48;;;;;;;9.77;8.77;;;4.60;47.00;;;;;;10476218;28;20234;-73
2021/01/07 03:09:51;;;;;;;9.80;8.80;;;4.60;47.00;;;;;;10477456;28;20301;-73
2021/01/07 03:14:53;;;;;;;8.97;8.13;;;4.60;47.00;;;;;;10475769;28;20611;-73
2021/01/07 03:19:55;;;;;;;9.17;8.27;;;4.60;46.90;;;;;;10469348;28;20239;-73
2021/01/07 03:24:58;;;;;;;8.80;7.87;;;4.60;46.90;;;;;;10474542;28;20220;-73
2021/01/07 03:30:01;;;;;;;9.10;8.20;;;4.60;46.90;;;;;;10473292;28;20231;-73
2021/01/07 03:35:05;;;;;;;8.80;8.00;;;4.60;46.90;;;;;;10470380;28;20229;-73
2021/01/07 03:40:09;;;;;;;9.20;8.40;;;4.60;46.80;;;;;;10457785;28;20320;-73
2021/01/07 03:45:13;;;;;;;9.03;8.23;;;4.60;46.80;;;;;;10455118;28;20228;-73
2021/01/07 03:50:15;;;;;;;8.47;7.67;;;4.60;46.90;;;;;;10457971;28;20713;-73
2021/01/07 03:55:18;;;;;;;8.40;7.60;;;4.60;46.80;;;;;;10462855;28;20298;-73
2021/01/07 04:00:21;;;;;;;8.60;7.77;;;4.70;47.00;;;;;;10453674;28;20233;-73
2021/01/07 04:05:23;;;;;;;8.53;7.70;;;4.70;46.90;;;;;;10462426;28;20228;-73
2021/01/07 04:10:26;;;;;;;8.47;7.67;;;4.70;46.70;;;;;;10461294;28;20319;-73
2021/01/07 04:15:28;;;;;;;7.93;7.13;;;4.70;46.80;;;;;;10461161;28;20604;-73
2021/01/07 04:20:31;;;;;;;8.57;7.77;;;4.70;46.80;;;;;;10459802;28;20225;-73
2021/01/07 04:25:34;;;;;;;7.77;6.87;;;4.70;46.80;;;;;;10451689;28;20231;-73
2021/01/07 04:30:36;;;;;;;8.13;7.33;;;4.70;46.80;;;;;;10464621;28;20250;-73
2021/01/07 04:35:38;;;;;;;8.27;7.47;;;4.70;46.80;;;;;;10455309;28;20729;-73
2021/01/07 04:40:41;;;;;;;7.57;6.87;;;4.70;46.80;;;;;;10457590;28;20323;-73
2021/01/07 04:45:43;;;;;;;7.97;7.27;;;4.70;46.80;;;;;;10449341;28;20236;-73
2021/01/07 04:50:46;;;;;;;7.87;7.07;;;4.70;46.60;;;;;;10455092;28;20261;-73
2021/01/07 04:55:49;;;;;;;8.10;7.40;;;4.70;46.70;;;;;;10457954;28;20229;-73
2021/01/07 05:00:51;;;;;;;8.53;7.53;;;4.70;46.80;;;;;;10457450;28;20221;-73
2021/01/07 05:05:54;;;;;;;8.53;7.50;;;4.70;46.80;;;;;;10451126;28;20247;-73
2021/01/07 05:10:58;;;;;;;10.00;9.00;;;4.70;46.80;;;;;;10464914;28;20700;-73
2021/01/07 05:16:00;;;;;;;8.00;7.23;;;4.70;46.90;;;;;;10455181;28;20274;-73
2021/01/07 05:21:04;;;;;;;7.70;7.00;;;4.70;46.80;;;;;;10447841;28;20217;-73
2021/01/07 05:26:09;;;;;;;9.10;8.20;;;4.70;46.90;;;;;;10464314;28;20228;-73
2021/01/07 05:31:11;;;;;;;8.87;7.90;;;4.70;46.90;;;;;;10461683;28;20301;-73
2021/01/07 05:36:26;;;;;;;8.77;7.97;;;4.70;47.50;;;;;;10453521;28;20228;-73
2021/01/07 05:41:30;;;;;;;8.27;7.47;;;4.70;46.90;;;;;;10450247;28;20232;-73
2021/01/07 05:46:34;;;;;;;8.03;7.23;;;4.70;46.90;;;;;;10454694;28;20565;-73
2021/01/07 05:51:41;;;;;;;7.03;6.40;;;4.70;46.70;;;;;;10457991;28;20231;-73
2021/01/07 05:56:46;;;;;;;8.07;7.37;;;4.80;46.80;;;;;;10455171;28;20225;-73
2021/01/07 06:01:51;;;;;;;9.07;8.20;;;4.80;46.70;;;;;;10448778;28;20235;-73
2021/01/07 06:06:54;;;;;;;7.90;7.13;;;4.80;46.70;;;;;;10456335;28;20336;-73
2021/01/07 06:11:59;;;;;;;8.30;7.50;;;4.80;46.70;;;;;;10459848;28;20224;-73
2021/01/07 06:17:01;;;;;;;7.67;6.97;;;4.80;46.60;;;;;;10458054;28;20323;-73
2021/01/07 06:22:10;;;;;;;9.73;8.73;;;4.80;46.80;;;;;;10459002;28;20562;-73
2021/01/07 06:27:20;;;;;;;7.70;7.00;;;4.70;46.80;;;;;;10451449;28;20699;-73
2021/01/07 06:32:23;;;;;;;7.70;7.00;;;4.70;46.80;;;;;;10463012;28;20234;-73
2021/01/07 06:37:34;;;;;;;7.73;6.93;;;4.70;46.60;;;;;;10467174;28;20590;-73
2021/01/07 06:42:39;;;;;;;8.57;7.77;;;4.70;46.80;;;;;;10447998;28;20220;-73
2021/01/07 06:47:42;;;;;;;7.43;6.73;;;4.70;46.70;;;;;;10452763;28;20700;-72
2021/01/07 06:52:46;;;;;;;8.20;7.37;;;4.80;46.80;;;;;;10457787;28;20232;-73
2021/01/07 06:57:50;;;;;;;7.20;6.50;;;4.70;46.70;;;;;;10459274;28;21813;-72
2021/01/07 07:02:59;;;;;;;7.97;7.23;;;4.70;46.70;;;;;;10456470;28;20221;-73
2021/01/07 07:08:09;;;;;;;8.00;7.27;;;4.70;46.70;;;;;;10463420;28;20307;-73
2021/01/07 07:13:16;;;;;;;8.03;7.23;;;4.70;46.60;;;;;;10469030;28;20606;-72
2021/01/07 07:18:26;;;;;;;8.70;7.80;;;4.70;46.60;;;;;;10457823;28;20239;-72
2021/01/07 07:23:30;;;;;;;8.67;7.87;;;4.70;46.70;;;;;;10465530;28;20308;-73
2021/01/07 07:28:34;;;;;;;8.20;7.40;;;4.70;46.60;;;;;;10454679;28;20235;-72
2021/01/07 07:33:38;;;;;;;7.97;7.27;;;4.70;46.50;;;;;;10458947;28;20243;-73
2021/01/07 07:38:42;;;;;;;9.00;8.10;;;4.70;46.50;;;;;;10465608;28;20608;-73
2021/01/07 07:43:45;;;;;;;8.80;8.00;;;4.70;46.50;;;;;;10453849;28;20236;-73
2021/01/07 07:48:47;;;;;;;9.10;8.20;;;4.70;46.50;;;;;;10467093;28;20232;-73
2021/01/07 07:53:50;;;;;;;9.03;8.13;;;4.70;46.50;;;;;;10457886;28;20237;-73
2021/01/07 07:58:59;;;;;;;10.57;9.53;;;4.70;46.60;;;;;;10451619;28;20233;-73
2021/01/07 08:04:02;;;;;;;11.17;10.10;;;4.70;46.70;;;;;;10460636;28;20224;-74
2021/01/07 08:09:05;;;;;;;13.33;11.97;;;4.80;46.60;;;;;;10465750;28;20302;-74
2021/01/07 08:14:11;;;;;;;14.73;11.77;;;4.70;46.50;;;;;;10457366;28;20224;-73
2021/01/07 08:19:15;;;;;;;12.40;10.77;;;4.70;46.60;;;;;;10454980;28;20721;-73
2021/01/07 08:24:19;;;;;;;12.20;10.90;;;4.70;46.50;;;;;;10463439;28;20740;-73
2021/01/07 08:29:25;;;;;;;11.67;10.47;;;4.70;46.60;;;;;;10475456;28;20240;-73
2021/01/07 08:34:31;;;;;;;12.93;11.07;;;4.70;46.70;;;;;;10476345;28;20225;-73
2021/01/07 08:39:36;;;;;;;10.70;9.57;;;4.70;46.60;;;;;;10465877;28;20277;-73
2021/01/07 08:44:39;;;;;;;11.00;9.90;;;4.70;46.70;;;;;;10475962;28;20222;-73
2021/01/07 08:49:41;;;;;;;11.73;10.53;;;4.70;46.70;;;;;;10469093;28;20225;-73
2021/01/07 08:54:53;;;;;;;12.90;11.50;;;4.70;46.60;;;;;;10474172;28;20645;-73
2021/01/07 08:59:57;;;;;;;12.97;11.53;;;4.80;46.90;;;;;;10473063;28;20235;-73
2021/01/07 09:05:04;;;;;;;13.57;11.30;;;4.80;46.80;;;;;;10462221;28;20221;-73
2021/01/07 09:10:07;;;;;;;12.57;11.23;;;4.80;46.80;;;;;;10457085;28;20251;-73
2021/01/07 09:15:23;;;;;;;12.30;11.07;;;4.80;46.90;;;;;;10469051;28;20697;-73
2021/01/07 09:20:30;;;;;;;13.07;11.67;;;4.80;47.00;;;;;;10470947;28;20224;-72
2021/01/07 09:25:33;;;;;;;14.40;12.43;;;4.80;46.90;;;;;;10470628;28;20236;-73
2021/01/07 09:30:36;;;;;;;13.13;11.80;;;4.90;46.90;;;;;;10473433;28;20224;-73
2021/01/07 09:35:38;;;;;;;12.97;11.20;;;4.90;46.80;;;;;;10474255;28;20607;-73
2021/01/07 09:40:41;;;;;;;13.50;11.97;;;5.00;47.00;;;;;;10471783;28;20242;-72
2021/01/07 09:45:45;;;;;;;13.50;11.63;;;5.00;46.90;;;;;;10460992;28;20239;-73
2021/01/07 09:50:47;;;;;;;13.80;11.97;;;5.00;47.00;;;;;;10461297;28;20248;-73
2021/01/07 09:55:50;;;;;;;12.97;11.73;;;5.10;47.00;;;;;;10464412;28;20232;-72
2021/01/07 10:00:53;;;;;;;12.87;11.53;;;5.10;47.00;;;;;;10455300;28;20225;-72
2021/01/07 10:05:55;;;;;;;12.27;10.97;;;5.20;47.00;;;;;;10470585;28;20812;-72
2021/01/07 10:11:02;;;;;;;13.07;11.77;;;5.20;46.90;;;;;;10454367;28;20220;-73
2021/01/07 10:16:06;;;;;;;13.23;11.90;;;5.30;47.00;;;;;;10461018;28;20235;-73
2021/01/07 10:21:10;;;;;;;12.57;11.37;;;5.40;46.90;;;;;;10453608;28;20315;-72
2021/01/07 10:26:15;;;;;;;12.50;11.20;;;5.40;46.80;;;;;;10455957;28;20235;-72
2021/01/07 10:31:20;;;;;;;13.60;11.80;;;5.50;46.90;;;;;;10469547;28;20224;-73
2021/01/07 10:36:23;;;;;;;13.57;12.17;;;5.60;47.00;;;;;;10466546;28;20228;-72
2021/01/07 10:41:29;;;;;;;12.57;11.27;;;5.60;47.50;;;;;;10473574;28;20220;-72
2021/01/07 10:46:36;;;;;;;13.47;12.07;;;5.70;47.00;;;;;;10467156;28;20228;-73
2021/01/07 10:51:52;;;;;;;13.00;11.63;;;5.80;46.80;;;;;;10474564;28;20241;-74
2021/01/07 10:57:18;;;;;;;13.30;11.90;;;5.90;46.70;;;;;;10470758;28;20228;-74
2021/01/07 11:02:44;;;;;;;13.03;11.73;;;5.90;46.70;;;;;;10469768;28;20775;-74
2021/01/07 11:08:02;;;;;;;14.47;13.03;;;6.00;46.60;;;;;;10461820;28;20231;-74
2021/01/07 11:13:08;;;;;;;14.07;12.67;;;6.00;46.60;;;;;;10466379;28;20220;-74
2021/01/07 11:18:14;;;;;;;14.40;12.93;;;6.00;46.60;;;;;;10462242;28;20246;-74
2021/01/07 11:23:19;;;;;;;14.80;13.20;;;6.00;46.70;;;;;;10466306;28;20233;-75
2021/01/07 11:28:22;;;;;;;14.60;12.47;;;6.00;46.40;;;;;;10464001;28;20831;-74
2021/01/07 11:33:26;;;;;;;15.27;13.67;;;6.00;46.50;;;;;;10468908;28;20232;-75
2021/01/07 11:38:30;;;;;;;13.97;12.50;;;6.10;47.50;;;;;;10457999;28;20311;-75
2021/01/07 11:43:59;;;;;;;14.40;12.87;;;6.10;46.90;;;;;;10471113;28;20227;-75
2021/01/07 11:49:04;;;;;;;14.67;13.13;;;6.20;46.70;;;;;;10471276;28;20360;-75
2021/01/07 11:54:08;;;;;;;14.27;12.77;;;6.20;46.50;;;;;;10462463;28;20233;-75
2021/01/07 11:59:11;;;;;;;14.87;13.37;;;6.30;46.40;;;;;;10479416;28;20239;-75
2021/01/07 12:04:14;;;;;;;14.97;13.37;;;6.30;46.50;;;;;;10474945;28;20354;-75
2021/01/07 12:09:22;;;;;;;14.80;13.30;;;6.30;46.40;;;;;;10481629;28;20675;-75
2021/01/07 12:14:27;;;;;;;14.87;13.30;;;6.30;46.20;;;;;;10479978;28;20231;-75
2021/01/07 12:19:32;;;;;;;16.37;13.33;;;6.30;46.50;;;;;;10475958;28;20792;-75
2021/01/07 12:24:35;;;;;;;14.50;12.87;;;6.30;46.40;;;;;;10462189;28;20248;-75
2021/01/07 12:29:40;;;;;;;15.30;13.70;;;6.30;46.20;;;;;;10470110;28;20255;-75
2021/01/07 12:34:59;;;;;;;16.60;14.00;;;6.30;46.00;;;;;;10461230;28;20229;-75
2021/01/07 12:40:06;;;;;;;16.23;12.50;;;6.30;45.90;;;;;;10473329;28;20732;-74
2021/01/07 12:45:12;;;;;;;16.07;12.87;;;6.30;46.00;;;;;;10462818;28;20676;-73
2021/01/07 12:50:15;;;;;;;18.33;15.43;;;6.30;46.00;;;;;;10454637;28;20243;-73
2021/01/07 12:55:18;;;;;;;15.83;14.03;;;6.30;46.20;;;;;;10453716;28;20732;-73
2021/01/07 13:00:23;;;;;;;17.93;14.27;;;6.40;46.00;;;;;;10450104;28;20233;-73
2021/01/07 13:05:30;;;;;;;17.77;15.70;;;6.40;45.80;;;;;;10454637;28;20314;-73
2021/01/07 13:10:36;;;;;;;17.90;15.37;;;6.40;45.70;;;;;;10459591;28;20221;-73
2021/01/07 13:15:41;;;;;;;16.97;14.60;;;6.40;45.80;;;;;;10458752;28;20225;-73
2021/01/07 13:20:45;;;;;;;17.73;15.47;;;6.30;45.80;;;;;;10457374;28;20228;-73
2021/01/07 13:25:47;;;;;;;18.13;15.70;;;6.20;45.70;;;;;;10462706;28;20224;-73
2021/01/07 13:30:50;;;;;;;19.40;15.67;;;6.20;45.80;;;;;;10456979;28;20231;-73
2021/01/07 13:35:58;;;;;;;17.70;15.07;;;6.20;45.70;;;;;;10455401;28;20714;-73
2021/01/07 13:41:02;;;;;;;17.67;14.43;;;6.10;45.70;;;;;;10461724;28;20225;-73
2021/01/07 13:46:08;;;;;;;16.63;14.83;;;6.10;45.90;;;;;;10463406;28;20213;-73
2021/01/07 13:51:12;;;;;;;19.50;16.53;;;6.10;45.90;;;;;;10467199;28;20227;-73
2021/01/07 13:56:15;;;;;;;18.20;15.87;;;6.10;45.80;;;;;;10467549;28;20233;-73
2021/01/07 14:01:17;;;;;;;19.67;16.37;;;6.00;45.90;;;;;;10463036;28;20224;-73
2021/01/07 14:06:22;;;;;;;21.17;17.17;;;6.00;46.00;;;;;;10456719;28;20220;-73
2021/01/07 14:11:29;;;;;;;20.57;16.83;;;6.00;45.90;;;;;;10451580;28;20234;-73
2021/01/07 14:16:32;;;;;;;18.63;16.63;;;6.00;46.10;;;;;;10457031;28;20239;-73
2021/01/07 14:21:39;;;;;;;19.90;17.70;;;6.00;46.10;;;;;;10450927;28;20225;-73
2021/01/07 14:26:50;;;;;;;19.90;17.77;;;6.00;46.00;;;;;;10458658;28;20237;-73
2021/01/07 14:31:54;;;;;;;19.13;16.67;;;6.10;46.00;;;;;;10450964;28;20229;-73
2021/01/07 14:37:00;;;;;;;20.90;18.60;;;6.10;45.90;;;;;;10459368;28;20271;-73
2021/01/07 14:42:04;;;;;;;21.77;19.47;;;6.10;46.00;;;;;;10456205;28;20231;-73
2021/01/07 14:47:11;;;;;;;22.57;19.13;;;6.00;45.90;;;;;;10458559;28;20228;-73
2021/01/07 14:52:16;;;;;;;23.43;17.50;;;6.00;46.00;;;;;;10460682;28;20271;-73
2021/01/07 14:57:38;;;;;;;22.90;17.93;;;6.00;45.90;;;;;;10464377;28;20232;-73
2021/01/07 15:02:49;;;;;;;25.43;18.90;;;6.10;45.80;;;;;;10469526;28;20220;-73
2021/01/07 15:08:21;;;;;;;18.73;15.60;;;6.10;45.80;;;;;;10471014;28;20233;-73
2021/01/07 15:13:32;;;;;;;17.77;15.43;;;6.10;45.70;;;;;;10448668;28;20693;-73
2021/01/07 15:18:41;;;;;;;22.60;18.20;;;6.10;45.70;;;;;;10455014;28;20617;-73
2021/01/07 15:24:14;;;;;;;22.77;17.83;;;6.20;45.70;;;;;;10447038;28;20312;-73
2021/01/07 15:29:25;;;;;;;24.20;19.53;;;6.20;45.50;;;;;;10465699;28;20229;-73
2021/01/07 15:34:29;;;;;;;20.70;17.37;;;6.10;45.40;;;;;;10456997;28;20225;-73
2021/01/07 15:40:07;;;;;;;19.23;16.70;;;6.10;45.40;;;;;;10466669;28;20311;-73
2021/01/07 15:45:45;;;;;;;19.07;15.77;;;6.10;45.40;;;;;;10467373;28;20319;-73
2021/01/07 15:50:56;;;;;;;18.67;16.63;;;6.00;45.30;;;;;;10437484;28;20231;-73
2021/01/07 15:56:25;;;;;;;21.70;16.93;;;6.00;45.50;;;;;;10464972;28;20271;-73
2021/01/07 16:01:36;;;;;;;20.20;14.87;;;5.90;45.50;;;;;;10432800;28;20875;-73
2021/01/07 16:06:43;;;;;;;17.70;15.47;;;6.00;45.60;;;;;;10470429;28;20245;-74
2021/01/07 16:11:46;;;;;;;17.13;15.30;;;5.90;45.70;;;;;;10467865;28;20232;-74
2021/01/07 16:16:48;;;;;;;18.50;16.40;;;5.90;45.60;;;;;;10447374;28;20229;-73
2021/01/07 16:22:01;;;;;;;16.13;14.40;;;5.90;45.60;;;;;;10452934;28;20220;-73
2021/01/07 16:27:13;;;;;;;15.87;14.07;;;5.90;45.40;;;;;;10448805;28;20229;-72
2021/01/07 16:32:15;;;;;;;17.43;14.67;;;5.90;45.40;;;;;;10450068;28;20236;-73
2021/01/07 16:37:19;;;;;;;16.87;14.70;;;5.80;45.50;;;;;;10458474;28;20611;-73
2021/01/07 16:42:22;;;;;;;16.17;14.13;;;5.80;45.60;;;;;;10454582;28;20311;-73
2021/01/07 16:47:24;;;;;;;17.23;15.07;;;5.80;45.50;;;;;;10454977;28;20649;-73
2021/01/07 16:52:26;;;;;;;16.77;14.97;;;5.80;45.60;;;;;;10454549;28;20258;-73
2021/01/07 16:57:29;;;;;;;18.57;15.73;;;5.80;45.50;;;;;;10457629;28;20232;-73
2021/01/07 17:02:31;;;;;;;20.93;18.70;;;5.70;45.60;;;;;;10446540;28;20228;-73
2021/01/07 17:07:34;;;;;;;20.00;17.57;;;5.70;45.60;;;;;;10457482;28;20252;-73
2021/01/07 17:12:37;;;;;;;21.57;19.00;;;5.70;45.70;;;;;;10456886;28;20239;-73
2021/01/07 17:17:40;;;;;;;45.87;38.03;;;5.60;45.70;;;;;;10463689;28;20228;-74
2021/01/07 17:28:08;;;;;;;49.73;45.07;;;5.60;45.80;;;;;;10467379;28;20235;-74
2021/01/07 17:33:10;;;;;;;25.93;23.20;;;5.60;45.80;;;;;;10452570;28;20759;-73
2021/01/07 17:38:12;;;;;;;21.47;19.17;;;5.60;45.90;;;;;;10457407;28;20225;-73
2021/01/07 17:43:15;;;;;;;20.27;17.30;;;5.60;45.90;;;;;;10458007;28;20220;-72
2021/01/07 17:48:17;;;;;;;19.57;17.53;;;5.60;45.80;;;;;;10456751;28;20704;-73
2021/01/07 17:53:20;;;;;;;19.37;17.27;;;5.60;45.80;;;;;;10471370;28;20224;-73
2021/01/07 17:58:23;;;;;;;20.20;17.20;;;5.60;45.90;;;;;;10463750;28;20959;-73
2021/01/07 18:03:25;;;;;;;15.73;14.10;;;5.60;45.90;;;;;;10469033;28;20228;-73
2021/01/07 18:08:27;;;;;;;17.67;15.60;;;5.60;45.80;;;;;;10475879;28;20265;-74
2021/01/07 18:13:30;;;;;;;25.50;20.13;;;5.60;45.90;;;;;;10468818;28;20236;-73
2021/01/07 18:18:33;;;;;;;20.77;17.30;;;5.70;45.90;;;;;;10468380;28;20303;-73
2021/01/07 18:23:35;;;;;;;17.40;14.53;;;5.70;45.80;;;;;;10473565;28;20224;-73
2021/01/07 18:28:38;;;;;;;17.27;15.20;;;5.70;45.80;;;;;;10458076;28;20228;-73
2021/01/07 18:33:41;;;;;;;17.10;15.30;;;5.80;45.90;;;;;;10450048;28;20598;-72
2021/01/07 18:38:44;;;;;;;16.20;14.30;;;5.80;45.80;;;;;;10445729;28;20229;-72
2021/01/07 18:43:47;;;;;;;16.17;14.43;;;5.80;45.80;;;;;;10463677;28;20251;-73
2021/01/07 18:48:50;;;;;;;15.77;13.93;;;5.80;45.70;;;;;;10460122;28;20610;-72
2021/01/07 18:53:53;;;;;;;11.63;10.40;;;5.80;45.60;;;;;;10455581;28;20235;-72
2021/01/07 18:58:56;;;;;;;17.70;15.20;;;5.80;45.60;;;;;;10462184;28;20240;-71
2021/01/07 19:03:58;;;;;;;22.30;18.77;;;5.80;45.50;;;;;;10457776;28;20220;-73
2021/01/07 19:09:00;;;;;;;18.47;15.93;;;5.80;45.40;;;;;;10457993;28;20657;-72
2021/01/07 19:14:03;;;;;;;18.33;15.97;;;5.80;45.40;;;;;;10465397;28;20232;-73
2021/01/07 19:19:06;;;;;;;18.80;16.03;;;5.80;45.50;;;;;;10453956;28;20228;-72
2021/01/07 19:24:09;;;;;;;17.77;15.63;;;5.70;45.40;;;;;;10457988;28;20266;-73
2021/01/07 19:29:12;;;;;;;17.33;15.20;;;5.70;45.60;;;;;;10462856;28;20227;-73
2021/01/07 19:34:15;;;;;;;17.77;15.80;;;5.70;45.50;;;;;;10452684;28;20229;-72
2021/01/07 19:39:17;;;;;;;16.70;14.63;;;5.60;45.10;;;;;;10457236;28;20225;-72
2021/01/07 19:44:20;;;;;;;18.27;15.90;;;5.60;45.30;;;;;;10457065;28;20228;-71
2021/01/07 19:49:22;;;;;;;18.67;15.07;;;5.50;45.30;;;;;;10463342;28;20228;-71
2021/01/07 19:54:25;;;;;;;20.47;17.30;;;5.40;45.40;;;;;;10465024;28;20717;-71
2021/01/07 19:59:28;;;;;;;18.67;15.77;;;5.40;45.60;;;;;;10447288;28;20240;-72
2021/01/07 20:04:30;;;;;;;16.87;15.07;;;5.40;45.60;;;;;;10467230;28;20221;-74
2021/01/07 20:09:32;;;;;;;19.47;16.03;;;5.40;45.50;;;;;;10465684;28;20239;-74
2021/01/07 20:14:36;;;;;;;18.80;16.17;;;5.50;45.50;;;;;;10472072;28;20225;-74
2021/01/07 20:19:38;;;;;;;18.50;16.47;;;5.50;45.40;;;;;;10471909;28;20632;-74
2021/01/07 20:24:40;;;;;;;16.60;14.90;;;5.40;45.30;;;;;;10465495;28;20242;-73
2021/01/07 20:29:43;;;;;;;18.80;16.07;;;5.40;45.30;;;;;;10469553;28;20312;-71
2021/01/07 20:34:45;;;;;;;17.33;15.43;;;5.30;45.30;;;;;;10447232;28;20703;-71
2021/01/07 20:39:48;;;;;;;18.57;15.90;;;5.20;45.40;;;;;;10448223;28;20247;-71
2021/01/07 20:44:51;;;;;;;17.30;15.40;;;5.20;45.30;;;;;;10446914;28;20233;-71
2021/01/07 20:49:53;;;;;;;17.50;15.10;;;5.10;45.50;;;;;;10464903;28;20228;-71
2021/01/07 20:54:55;;;;;;;17.23;15.20;;;5.00;45.40;;;;;;10478275;28;20315;-71
2021/01/07 20:59:59;;;;;;;19.30;15.77;;;5.00;45.70;;;;;;10462615;28;20225;-71
2021/01/07 21:05:02;;;;;;;16.97;14.93;;;4.90;45.60;;;;;;10480447;28;20223;-71
2021/01/07 21:10:06;;;;;;;16.77;14.60;;;4.90;45.70;;;;;;10476329;28;20304;-71
2021/01/07 21:15:10;;;;;;;20.67;16.43;;;4.90;45.70;;;;;;10487480;28;20235;-71
2021/01/07 21:20:13;;;;;;;20.23;16.20;;;4.80;45.80;;;;;;10462204;28;20236;-70
2021/01/07 21:25:16;;;;;;;18.87;15.73;;;4.80;45.80;;;;;;10482482;28;20313;-72
2021/01/07 21:30:20;;;;;;;21.30;17.23;;;4.80;45.90;;;;;;10483607;28;20610;-72
2021/01/07 21:35:22;;;;;;;19.27;15.87;;;4.70;45.90;;;;;;10477638;28;20233;-72
2021/01/07 21:45:36;;;;;;;19.33;15.50;;;4.70;46.10;;;;;;10406367;28;20217;-73
2021/01/07 21:50:39;;;;;;;20.70;17.33;;;4.70;46.20;;;;;;10405495;28;20253;-71
2021/01/07 21:55:41;;;;;;;19.63;16.37;;;4.70;46.20;;;;;;10380257;28;20230;-70
2021/01/07 22:00:44;;;;;;;19.47;16.83;;;4.70;46.10;;;;;;10389498;28;20234;-71
2021/01/07 22:05:47;;;;;;;20.33;16.83;;;4.70;46.10;;;;;;10392933;28;20713;-71
2021/01/07 22:10:49;;;;;;;18.77;14.83;;;4.70;46.00;;;;;;10391598;28;20230;-71
2021/01/07 22:15:52;;;;;;;18.77;15.67;;;4.70;46.10;;;;;;10397976;28;20775;-75
2021/01/07 22:20:55;;;;;;;18.43;15.20;;;4.70;46.10;;;;;;10402239;28;20229;-75
2021/01/07 22:25:57;;;;;;;19.30;15.60;;;4.70;46.00;;;;;;10397306;28;20225;-75
2021/01/07 22:31:00;;;;;;;19.70;16.43;;;4.70;45.90;;;;;;10407781;28;20237;-75
2021/01/07 22:36:03;;;;;;;18.20;15.63;;;4.70;45.90;;;;;;10402510;28;20229;-74
2021/01/07 22:41:06;;;;;;;17.53;15.43;;;4.70;45.90;;;;;;10380186;28;653110;-71
2021/01/07 22:46:13;;;;;;;18.30;14.77;;;4.70;45.90;;;;;;10411778;28;20230;-71
2021/01/07 22:51:20;;;;;;;17.50;14.33;;;4.60;45.90;;;;;;10408245;28;20233;-71
2021/01/07 22:56:23;;;;;;;18.67;15.27;;;4.60;45.90;;;;;;10413212;28;20236;-71
2021/01/07 23:01:28;;;;;;;17.93;14.40;;;4.60;45.90;;;;;;10408145;28;20233;-74
2021/01/07 23:06:32;;;;;;;19.83;15.63;;;4.60;45.90;;;;;;10409964;28;20249;-74
2021/01/07 23:11:35;;;;;;;18.43;14.63;;;4.60;45.90;;;;;;10407367;28;20245;-74
2021/01/07 23:16:41;;;;;;;18.63;15.73;;;4.70;45.80;;;;;;10401528;28;20318;-74
2021/01/07 23:21:44;;;;;;;18.87;14.70;;;4.70;45.70;;;;;;10409688;28;20225;-74
2021/01/07 23:26:46;;;;;;;18.73;15.70;;;4.60;45.60;;;;;;10405525;28;20740;-74
2021/01/07 23:31:49;;;;;;;17.53;14.73;;;4.60;45.70;;;;;;10410889;28;20312;-74
2021/01/07 23:36:52;;;;;;;17.73;15.83;;;4.60;45.70;;;;;;10413710;28;20717;-75
2021/01/07 23:41:54;;;;;;;16.60;14.17;;;4.60;45.70;;;;;;10409094;28;20301;-72
2021/01/07 23:46:57;;;;;;;16.93;14.47;;;4.60;45.60;;;;;;10401680;28;20218;-71
2021/01/07 23:52:07;;;;;;;17.30;14.23;;;4.60;45.40;;;;;;10392668;28;20217;-71
2021/01/07 23:57:10;;;;;;;15.87;13.33;;;4.50;45.30;;;;;;10406141;28;20222;-75
